Archival Weather

Half Moon Bay

Half Moon Bay, California (KHAF)

Report from: Thursday, September 21, 2023 4:55 PM PDT
Current time: Saturday, February 24, 2024 7:25 AM PST

Current weather – Weather history – Daily summaries
Weather forecast

Present weatherHaze
Temperature17.0°C (62.6°F)
Dew point13.0°C (55.4°F)
Winds 7 kts (3.6 m/s, 8.1 mph) South (190°)
Visibility4 mi. (6.4 km)
Clouds Sky clear
Altimeter29.91 in.Hg (1013 mB)
Relative humidity77 %
Density altitude457 ft. (139 m)
Remarks Fully automated report
Automated weather observing station with precipitation discriminator
Flight conditions Marginal Visual Meteorological Conditions
Raw dataKHAF 212355Z AUTO 19007KT 4SM HZ CLR 17/13 A2991 RMK AO2
An error has occurred. This application may no longer respond until reloaded. Reload 🗙